createdAt,value
2019-03-03T00:00:22.807Z,3.80
2019-03-03T00:02:52.370Z,3.81
2019-03-03T00:05:23.225Z,3.83
2019-03-03T00:07:52.705Z,3.85
2019-03-03T00:10:22.163Z,3.88
2019-03-03T00:12:51.621Z,3.89
2019-03-03T00:15:21.241Z,3.90
2019-03-03T00:18:09.825Z,3.94
2019-03-03T00:20:59.623Z,3.94
2019-03-03T00:23:29.434Z,3.98
2019-03-03T00:25:58.880Z,4.02
2019-03-03T00:28:51.208Z,4.03
2019-03-03T00:31:31.410Z,4.06
2019-03-03T00:34:00.959Z,4.05
2019-03-03T00:36:49.273Z,4.07
2019-03-03T00:39:37.585Z,4.11
2019-03-03T00:42:25.932Z,4.12
2019-03-03T00:45:14.418Z,4.16
2019-03-03T00:48:02.695Z,4.16
2019-03-03T00:50:39.576Z,4.18
2019-03-03T00:53:18.147Z,4.19
2019-03-03T00:55:53.090Z,4.19
2019-03-03T00:58:53.976Z,4.23
2019-03-03T01:01:42.676Z,4.21
2019-03-03T01:07:39.928Z,4.27
2019-03-03T01:13:49.076Z,4.25
2019-03-03T01:16:37.691Z,4.32
2019-03-03T01:19:25.985Z,4.31
2019-03-03T01:22:00.182Z,4.29
2019-03-03T01:24:48.649Z,4.31
2019-03-03T01:27:18.392Z,4.30
2019-03-03T01:29:50.845Z,4.30
2019-03-03T01:32:20.412Z,4.40
2019-03-03T01:34:49.918Z,4.41
2019-03-03T01:37:39.812Z,4.43
2019-03-03T01:40:21.093Z,4.44
2019-03-03T01:42:50.657Z,4.44
2019-03-03T01:45:20.163Z,4.44
2019-03-03T01:47:49.569Z,4.43
2019-03-03T01:50:19.152Z,4.43
2019-03-03T01:52:48.742Z,4.46
2019-03-03T01:55:18.278Z,4.45
2019-03-03T01:57:50.478Z,4.45
2019-03-03T02:00:39.207Z,4.43
2019-03-03T02:03:20.179Z,4.43
2019-03-03T02:06:01.002Z,4.46
2019-03-03T02:11:05.804Z,4.41
2019-03-03T02:13:35.256Z,4.45
2019-03-03T02:18:55.030Z,4.54
2019-03-03T02:21:24.920Z,4.56
2019-03-03T02:23:54.321Z,4.58
2019-03-03T02:26:23.897Z,4.53
2019-03-03T02:28:53.469Z,4.56
2019-03-03T02:31:25.940Z,4.54
2019-03-03T02:33:55.399Z,4.50
2019-03-03T02:36:25.281Z,4.41
2019-03-03T02:38:54.882Z,4.43
2019-03-03T02:41:54.550Z,4.41
2019-03-03T02:44:26.603Z,4.44
2019-03-03T02:47:15.106Z,4.36
2019-03-03T02:49:56.062Z,4.36
2019-03-03T02:52:26.098Z,4.42
2019-03-03T02:54:55.509Z,4.42
2019-03-03T02:57:25.465Z,4.42
2019-03-03T03:00:15.993Z,4.34
2019-03-03T03:09:18.211Z,4.39
2019-03-03T03:12:02.220Z,4.36
2019-03-03T03:14:46.041Z,4.36
2019-03-03T03:17:34.369Z,4.38
2019-03-03T03:20:29.370Z,4.40
2019-03-03T03:23:17.842Z,4.42
2019-03-03T03:26:06.163Z,4.38
2019-03-03T03:28:54.500Z,4.43
2019-03-03T03:31:34.662Z,4.44
2019-03-03T03:34:23.101Z,4.46
2019-03-03T03:37:11.480Z,4.45
2019-03-03T03:40:14.758Z,4.46
2019-03-03T03:43:23.559Z,4.46
2019-03-03T03:46:01.528Z,4.49
2019-03-03T03:48:42.868Z,4.52
2019-03-03T03:51:31.224Z,4.55
2019-03-03T03:54:19.692Z,4.58
2019-03-03T03:56:58.258Z,4.61
2019-03-03T03:59:46.533Z,4.61
2019-03-03T04:02:34.912Z,4.61
2019-03-03T04:05:42.178Z,4.56
2019-03-03T04:08:17.263Z,4.56
2019-03-03T04:11:00.126Z,4.58
2019-03-03T04:14:07.393Z,4.59
2019-03-03T04:17:00.862Z,4.62
2019-03-03T04:19:36.361Z,4.61
2019-03-03T04:22:33.748Z,4.58
2019-03-03T04:25:36.350Z,4.59
2019-03-03T04:28:12.141Z,4.60
2019-03-03T04:31:04.866Z,4.59
2019-03-03T04:33:42.844Z,4.57
2019-03-03T04:36:50.163Z,4.62
2019-03-03T04:39:38.644Z,4.62
2019-03-03T04:42:26.987Z,4.60
2019-03-03T04:45:15.239Z,4.61
2019-03-03T04:48:03.691Z,4.60
2019-03-03T04:54:08.338Z,4.64
2019-03-03T04:56:56.653Z,4.65
2019-03-03T04:59:45.064Z,4.68
2019-03-03T05:02:33.379Z,4.68
2019-03-03T05:08:07.455Z,4.70
2019-03-03T05:10:55.760Z,4.69
2019-03-03T05:14:01.432Z,4.62
2019-03-03T05:16:53.034Z,4.65
2019-03-03T05:22:01.325Z,4.63
2019-03-03T05:24:37.569Z,4.62
2019-03-03T05:27:07.013Z,4.66
2019-03-03T05:29:36.517Z,4.71
2019-03-03T05:32:06.046Z,4.71
2019-03-03T05:34:35.438Z,4.72
2019-03-03T05:37:04.882Z,4.71
2019-03-03T05:42:56.110Z,4.63
2019-03-03T05:45:46.120Z,4.63
2019-03-03T05:48:34.656Z,4.59
2019-03-03T05:53:39.445Z,4.65
2019-03-03T05:56:28.111Z,4.69
2019-03-03T05:58:59.060Z,4.69
2019-03-03T06:01:28.542Z,4.68
2019-03-03T06:03:58.107Z,4.69
2019-03-03T06:06:27.489Z,4.68
2019-03-03T06:09:00.342Z,4.70
2019-03-03T06:11:29.767Z,4.69
2019-03-03T06:13:59.161Z,4.69
2019-03-03T06:16:50.203Z,4.64
2019-03-03T06:19:19.783Z,4.69
2019-03-03T06:21:49.211Z,4.70
2019-03-03T06:24:41.333Z,4.77
2019-03-03T06:30:13.817Z,4.72
2019-03-03T06:32:43.225Z,4.83
2019-03-03T06:35:12.836Z,4.83
2019-03-03T06:37:42.306Z,4.84
2019-03-03T06:40:11.941Z,4.83
2019-03-03T06:43:00.277Z,4.80
2019-03-03T06:45:29.741Z,4.77
2019-03-03T06:48:18.246Z,4.85
2019-03-03T06:53:55.100Z,4.89
2019-03-03T06:59:20.361Z,4.92
2019-03-03T07:02:08.857Z,4.92
2019-03-03T07:04:38.342Z,4.94
2019-03-03T07:07:07.718Z,4.93
2019-03-03T07:09:37.093Z,4.94
2019-03-03T07:12:06.497Z,4.98
2019-03-03T07:14:35.883Z,4.97
2019-03-03T07:17:05.365Z,4.96
2019-03-03T07:19:34.784Z,4.97
2019-03-03T07:22:06.055Z,5.00
2019-03-03T07:24:35.596Z,5.00
2019-03-03T07:27:05.070Z,5.00
2019-03-03T07:29:34.981Z,5.04
2019-03-03T07:32:04.472Z,5.04
2019-03-03T07:34:34.141Z,5.05
2019-03-03T07:37:03.587Z,5.06
2019-03-03T07:39:35.413Z,5.08
2019-03-03T07:44:46.189Z,5.11
2019-03-03T07:47:27.347Z,5.11
2019-03-03T07:53:11.304Z,5.20
2019-03-03T07:55:40.977Z,5.25
2019-03-03T07:58:10.352Z,5.31
2019-03-03T08:00:48.884Z,5.36
2019-03-03T08:03:20.726Z,5.37
2019-03-03T08:05:50.755Z,5.41
2019-03-03T08:08:20.253Z,5.47
2019-03-03T08:10:49.774Z,5.50
2019-03-03T08:13:19.287Z,5.51
2019-03-03T08:15:48.761Z,5.51
2019-03-03T08:18:18.239Z,5.55
2019-03-03T08:23:23.009Z,5.58
2019-03-03T08:28:33.338Z,5.61
2019-03-03T08:31:03.254Z,5.60
2019-03-03T08:33:32.993Z,5.62
2019-03-03T08:38:56.126Z,5.68
2019-03-03T08:47:52.835Z,5.76
2019-03-03T08:53:39.659Z,5.77
2019-03-03T08:56:28.044Z,5.83
2019-03-03T08:59:14.271Z,5.88
2019-03-03T09:01:53.402Z,5.90
2019-03-03T09:04:41.841Z,5.92
2019-03-03T09:10:31.342Z,6.00
2019-03-03T09:13:20.115Z,6.08
2019-03-03T09:16:08.576Z,6.14
2019-03-03T09:18:56.896Z,6.19
2019-03-03T09:21:45.353Z,6.24
2019-03-03T09:24:33.690Z,6.26
2019-03-03T09:27:22.457Z,6.24
2019-03-03T09:30:10.714Z,6.24
2019-03-03T09:33:02.248Z,6.26
2019-03-03T09:35:50.798Z,6.26
2019-03-03T09:38:30.142Z,6.29
2019-03-03T09:41:10.179Z,6.29
2019-03-03T09:43:58.536Z,6.30
2019-03-03T09:46:46.920Z,6.31
2019-03-03T09:49:35.276Z,6.33
2019-03-03T09:55:37.367Z,6.35
2019-03-03T09:58:25.715Z,6.37
2019-03-03T10:01:14.228Z,6.38
2019-03-03T10:04:04.293Z,6.39
2019-03-03T10:07:07.678Z,6.42
2019-03-03T10:09:48.801Z,6.52
2019-03-03T10:12:38.915Z,6.59
2019-03-03T10:15:27.855Z,6.63
2019-03-03T10:18:16.510Z,6.65
2019-03-03T10:21:04.838Z,6.69
2019-03-03T10:23:53.226Z,6.77
2019-03-03T10:26:38.707Z,6.87
2019-03-03T10:29:27.536Z,6.97
2019-03-03T10:32:16.036Z,7.07
2019-03-03T10:35:12.885Z,7.17
2019-03-03T10:38:01.318Z,7.41
2019-03-03T10:40:49.770Z,7.81
2019-03-03T10:43:38.005Z,8.09
2019-03-03T10:46:16.835Z,8.29
2019-03-03T10:49:05.140Z,8.52
2019-03-03T10:51:53.574Z,8.73
2019-03-03T10:55:03.853Z,8.94
2019-03-03T10:57:52.405Z,9.06
2019-03-03T11:00:40.917Z,9.23
2019-03-03T11:03:29.306Z,9.32
2019-03-03T11:06:18.381Z,9.43
2019-03-03T11:09:06.808Z,9.42
2019-03-03T11:11:48.210Z,9.38
2019-03-03T11:14:36.910Z,9.33
2019-03-03T11:17:25.325Z,9.22
2019-03-03T11:20:13.895Z,9.13
2019-03-03T11:23:02.224Z,9.05
2019-03-03T11:25:50.768Z,8.98
2019-03-03T11:28:39.114Z,8.88
2019-03-03T11:31:27.625Z,8.81
2019-03-03T11:34:15.919Z,8.75
2019-03-03T11:37:07.735Z,8.69
2019-03-03T11:39:56.162Z,8.66
2019-03-03T11:42:45.084Z,8.62
2019-03-03T11:45:33.390Z,8.56
2019-03-03T11:48:21.777Z,8.48
2019-03-03T11:50:56.708Z,8.46
2019-03-03T11:53:45.243Z,8.49
2019-03-03T11:59:48.503Z,8.54
2019-03-03T12:02:24.738Z,8.62
2019-03-03T12:05:13.063Z,8.71
2019-03-03T12:08:01.369Z,8.82
2019-03-03T12:10:50.072Z,8.94
2019-03-03T12:13:24.151Z,9.08
2019-03-03T12:16:12.717Z,9.25
2019-03-03T12:19:01.793Z,9.35
2019-03-03T12:21:51.345Z,9.45
2019-03-03T12:24:29.836Z,9.55
2019-03-03T12:27:08.548Z,9.73
2019-03-03T12:29:56.802Z,9.77
2019-03-03T12:32:45.200Z,9.83
2019-03-03T12:35:33.467Z,9.86
2019-03-03T12:38:21.865Z,9.96
2019-03-03T12:41:10.197Z,9.97
2019-03-03T12:43:58.689Z,9.91
2019-03-03T12:46:47.510Z,9.85
2019-03-03T12:49:36.085Z,9.85
2019-03-03T12:52:24.491Z,9.78
2019-03-03T12:55:12.860Z,9.74
2019-03-03T12:58:01.196Z,9.65
2019-03-03T13:00:49.590Z,9.63
2019-03-03T13:03:40.448Z,9.70
2019-03-03T13:06:30.397Z,9.71
2019-03-03T13:09:31.064Z,9.68
2019-03-03T13:12:20.581Z,9.78
2019-03-03T13:15:08.945Z,9.83
2019-03-03T13:17:57.273Z,9.82
2019-03-03T13:20:45.573Z,9.74
2019-03-03T13:23:24.182Z,9.73
2019-03-03T13:26:12.483Z,9.72
2019-03-03T13:29:00.786Z,9.75
2019-03-03T13:34:42.770Z,9.74
2019-03-03T13:37:31.077Z,9.74
2019-03-03T13:40:19.601Z,9.76
2019-03-03T13:42:57.233Z,9.81
2019-03-03T13:45:49.347Z,9.83
2019-03-03T13:48:30.299Z,9.84
2019-03-03T13:51:02.294Z,9.83
2019-03-03T13:53:32.003Z,9.80
2019-03-03T13:56:01.599Z,9.77
2019-03-03T13:58:36.341Z,9.77
2019-03-03T14:01:05.851Z,9.73
2019-03-03T14:03:35.295Z,9.73
2019-03-03T14:06:25.050Z,9.73
2019-03-03T14:14:55.678Z,9.85
2019-03-03T14:17:37.461Z,9.93
2019-03-03T14:20:29.741Z,10.09
2019-03-03T14:25:49.299Z,10.17
2019-03-03T14:28:18.911Z,10.08
2019-03-03T14:36:13.663Z,9.85
2019-03-03T14:38:43.244Z,9.87
2019-03-03T14:41:12.651Z,9.93
2019-03-03T14:43:42.076Z,9.93
2019-03-03T14:46:30.612Z,9.90
2019-03-03T14:49:11.635Z,9.87
2019-03-03T14:51:52.322Z,9.86
2019-03-03T14:54:21.805Z,9.81
2019-03-03T14:56:54.248Z,9.71
2019-03-03T14:59:26.084Z,9.63
2019-03-03T15:01:55.474Z,9.64
2019-03-03T15:07:03.486Z,9.78
2019-03-03T15:09:34.163Z,9.83
2019-03-03T15:12:03.662Z,9.82
2019-03-03T15:14:39.118Z,9.76
2019-03-03T15:17:08.513Z,9.72
2019-03-03T15:19:37.934Z,9.70
2019-03-03T15:22:07.448Z,9.67
2019-03-03T15:24:36.831Z,9.63
2019-03-03T15:27:06.312Z,9.49
2019-03-03T15:29:35.786Z,9.37
2019-03-03T15:32:05.288Z,9.22
2019-03-03T15:34:34.700Z,9.11
2019-03-03T15:39:40.778Z,8.89
2019-03-03T15:42:10.332Z,8.82
2019-03-03T15:44:39.862Z,8.78
2019-03-03T15:47:09.515Z,8.71
2019-03-03T15:49:38.973Z,8.65
2019-03-03T15:52:27.323Z,8.59
2019-03-03T15:54:57.479Z,8.52
2019-03-03T15:57:47.360Z,8.44
2019-03-03T16:08:54.499Z,8.13
2019-03-03T16:11:24.157Z,8.09
2019-03-03T16:13:53.538Z,8.06
2019-03-03T16:16:23.023Z,8.00
2019-03-03T16:18:52.566Z,7.96
2019-03-03T16:21:21.976Z,7.92
2019-03-03T16:23:53.983Z,7.88
2019-03-03T16:28:59.042Z,7.82
2019-03-03T16:34:03.726Z,7.82
2019-03-03T16:36:33.313Z,7.83
2019-03-03T16:39:02.701Z,7.83
2019-03-03T16:41:32.206Z,7.84
2019-03-03T16:46:37.052Z,7.81
2019-03-03T16:49:06.509Z,7.81
2019-03-03T16:51:55.090Z,7.77
2019-03-03T16:54:24.517Z,7.71
2019-03-03T16:56:54.960Z,7.58
2019-03-03T16:59:24.334Z,7.46
2019-03-03T17:01:54.126Z,7.32
2019-03-03T17:04:23.505Z,7.25
2019-03-03T17:06:53.011Z,7.19
2019-03-03T17:09:22.463Z,7.13
2019-03-03T17:11:51.940Z,7.06
2019-03-03T17:14:21.409Z,7.01
2019-03-03T17:16:51.150Z,6.97
2019-03-03T17:19:20.713Z,6.99
2019-03-03T17:21:50.313Z,7.00
2019-03-03T17:24:19.829Z,7.01
2019-03-03T17:26:49.319Z,7.04
2019-03-03T17:29:18.788Z,7.07
2019-03-03T17:34:23.204Z,7.10
2019-03-03T17:36:52.805Z,7.07
2019-03-03T17:39:22.260Z,7.02
2019-03-03T17:41:53.267Z,6.96
2019-03-03T17:44:22.838Z,6.89
2019-03-03T17:46:52.409Z,6.80
2019-03-03T17:49:21.862Z,6.75
2019-03-03T17:51:51.438Z,6.68
2019-03-03T17:54:20.978Z,6.65
2019-03-03T17:56:50.865Z,6.65
2019-03-03T18:01:56.326Z,6.66
2019-03-03T18:07:01.353Z,6.70
2019-03-03T18:09:30.980Z,6.71
2019-03-03T18:12:19.327Z,6.75
2019-03-03T18:14:49.246Z,6.78
2019-03-03T18:17:18.818Z,6.82
2019-03-03T18:19:48.393Z,6.86
2019-03-03T18:22:18.266Z,6.90
2019-03-03T18:24:47.711Z,6.95
2019-03-03T18:27:17.147Z,6.98
2019-03-03T18:29:46.578Z,7.00
2019-03-03T18:37:45.356Z,7.07
2019-03-03T18:43:17.527Z,7.13
2019-03-03T18:45:47.315Z,7.13
2019-03-03T18:48:16.763Z,7.13
2019-03-03T18:50:46.328Z,7.14
2019-03-03T18:53:15.878Z,7.13
2019-03-03T18:55:45.346Z,7.15
2019-03-03T18:58:14.793Z,7.16
2019-03-03T19:00:45.250Z,7.17
2019-03-03T19:03:14.674Z,7.19
2019-03-03T19:05:44.415Z,7.23
2019-03-03T19:08:13.860Z,7.25
2019-03-03T19:10:43.576Z,7.27
2019-03-03T19:13:13.055Z,7.31
2019-03-03T19:18:31.458Z,7.33
2019-03-03T19:21:00.991Z,7.32
2019-03-03T19:23:30.483Z,7.31
2019-03-03T19:28:35.193Z,7.31
2019-03-03T19:31:04.744Z,7.28
2019-03-03T19:33:55.505Z,7.27
2019-03-03T19:36:39.320Z,7.27
2019-03-03T19:38:58.085Z,7.25
2019-03-03T19:41:39.184Z,7.23
2019-03-03T19:44:08.601Z,7.23
2019-03-03T19:46:38.113Z,7.20
2019-03-03T19:49:07.680Z,7.22
2019-03-03T19:51:37.102Z,7.20
2019-03-03T19:54:06.507Z,7.23
2019-03-03T19:59:10.863Z,7.22
2019-03-03T20:01:51.529Z,7.22
2019-03-03T20:04:33.313Z,7.21
2019-03-03T20:07:02.824Z,7.20
2019-03-03T20:09:59.767Z,7.20
2019-03-03T20:12:29.393Z,7.21
2019-03-03T20:15:01.821Z,7.22
2019-03-03T20:17:31.355Z,7.23
2019-03-03T20:22:37.653Z,7.23
2019-03-03T20:25:26.356Z,7.24
2019-03-03T20:27:56.022Z,7.21
2019-03-03T20:30:25.633Z,7.20
2019-03-03T20:32:55.838Z,7.19
2019-03-03T20:35:25.350Z,7.20
2019-03-03T20:37:54.913Z,7.18
2019-03-03T20:40:24.508Z,7.17
2019-03-03T20:42:53.992Z,7.18
2019-03-03T20:45:24.369Z,7.18
2019-03-03T20:47:53.941Z,7.17
2019-03-03T20:50:43.741Z,7.19
2019-03-03T20:53:24.619Z,7.21
2019-03-03T20:55:56.905Z,7.22
2019-03-03T20:58:45.274Z,7.22
2019-03-03T21:06:48.802Z,7.24
2019-03-03T21:09:30.323Z,7.24
2019-03-03T21:11:59.875Z,7.27
2019-03-03T21:14:29.342Z,7.26
2019-03-03T21:16:58.764Z,7.25
2019-03-03T21:19:42.297Z,7.26
2019-03-03T21:21:59.467Z,7.26
2019-03-03T21:24:51.322Z,7.25
2019-03-03T21:30:20.127Z,7.25
2019-03-03T21:33:09.943Z,7.25
2019-03-03T21:38:34.718Z,7.29
2019-03-03T21:41:04.230Z,7.28
2019-03-03T21:43:35.666Z,7.27
2019-03-03T21:46:05.246Z,7.27
2019-03-03T21:48:34.640Z,7.28
2019-03-03T21:53:54.498Z,7.30
2019-03-03T21:56:24.035Z,7.30
2019-03-03T21:58:53.440Z,7.33
2019-03-03T22:07:05.690Z,7.42
2019-03-03T22:09:35.056Z,7.43
2019-03-03T22:12:15.902Z,7.47
2019-03-03T22:14:45.559Z,7.52
2019-03-03T22:17:15.003Z,7.55
2019-03-03T22:19:44.444Z,7.57
2019-03-03T22:22:13.819Z,7.59
2019-03-03T22:24:43.225Z,7.58
2019-03-03T22:27:13.206Z,7.60
2019-03-03T22:29:42.577Z,7.60
2019-03-03T22:32:11.999Z,7.60
2019-03-03T22:34:41.442Z,7.58
2019-03-03T22:37:10.917Z,7.59
2019-03-03T22:39:40.306Z,7.57
2019-03-03T22:42:09.744Z,7.57
2019-03-03T22:44:39.142Z,7.54
2019-03-03T22:47:08.512Z,7.50
2019-03-03T22:49:37.945Z,7.49
2019-03-03T22:52:07.382Z,7.49
2019-03-03T22:54:36.763Z,7.51
2019-03-03T22:57:06.202Z,7.49
2019-03-03T22:59:35.585Z,7.48
2019-03-03T23:02:05.187Z,7.48
2019-03-03T23:04:51.797Z,7.46
2019-03-03T23:07:59.311Z,7.45
2019-03-03T23:11:06.727Z,7.42
2019-03-03T23:16:31.022Z,7.38
2019-03-03T23:19:38.492Z,7.34
2019-03-03T23:22:51.754Z,7.32
2019-03-03T23:25:49.315Z,7.28
2019-03-03T23:28:39.473Z,7.26
2019-03-03T23:31:08.917Z,7.22
2019-03-03T23:33:38.369Z,7.21
2019-03-03T23:36:07.925Z,7.17
2019-03-03T23:38:37.342Z,7.11
2019-03-03T23:41:06.765Z,7.09
2019-03-03T23:43:36.402Z,7.06
2019-03-03T23:46:05.793Z,7.06
2019-03-03T23:48:35.213Z,7.04
2019-03-03T23:53:43.524Z,7.01
2019-03-03T23:56:32.269Z,7.01
2019-03-03T23:59:01.953Z,6.98
